sensor_id;sensor_type;location;lat;lon;timestamp;P1;durP1;ratioP1;P2;durP2;ratioP2
22468;SDS011;11401;50.792;4.352;2023-01-19T00:00:54;6.63;;;5.85;;
22468;SDS011;11401;50.792;4.352;2023-01-19T00:03:21;7.47;;;5.80;;
22468;SDS011;11401;50.792;4.352;2023-01-19T00:05:48;7.88;;;5.75;;
22468;SDS011;11401;50.792;4.352;2023-01-19T00:08:16;7.93;;;6.30;;
22468;SDS011;11401;50.792;4.352;2023-01-19T00:10:45;7.07;;;6.20;;
22468;SDS011;11401;50.792;4.352;2023-01-19T00:13:13;8.68;;;6.47;;
22468;SDS011;11401;50.792;4.352;2023-01-19T00:15:41;10.20;;;6.97;;
22468;SDS011;11401;50.792;4.352;2023-01-19T00:18:08;6.38;;;5.78;;
22468;SDS011;11401;50.792;4.352;2023-01-19T00:20:36;10.02;;;6.90;;
22468;SDS011;11401;50.792;4.352;2023-01-19T00:23:07;7.38;;;6.68;;
22468;SDS011;11401;50.792;4.352;2023-01-19T00:25:35;8.02;;;6.75;;
22468;SDS011;11401;50.792;4.352;2023-01-19T00:28:11;7.72;;;6.53;;
22468;SDS011;11401;50.792;4.352;2023-01-19T00:30:40;7.28;;;6.60;;
22468;SDS011;11401;50.792;4.352;2023-01-19T00:33:08;8.38;;;6.72;;
22468;SDS011;11401;50.792;4.352;2023-01-19T00:35:39;7.43;;;5.90;;
22468;SDS011;11401;50.792;4.352;2023-01-19T00:38:08;7.53;;;6.40;;
22468;SDS011;11401;50.792;4.352;2023-01-19T00:40:36;9.07;;;6.40;;
22468;SDS011;11401;50.792;4.352;2023-01-19T00:43:03;10.43;;;7.20;;
22468;SDS011;11401;50.792;4.352;2023-01-19T00:45:30;6.82;;;6.22;;
22468;SDS011;11401;50.792;4.352;2023-01-19T00:47:59;8.00;;;6.90;;
22468;SDS011;11401;50.792;4.352;2023-01-19T00:50:26;7.13;;;6.35;;
22468;SDS011;11401;50.792;4.352;2023-01-19T00:52:55;12.63;;;7.00;;
22468;SDS011;11401;50.792;4.352;2023-01-19T00:55:26;8.27;;;5.95;;
22468;SDS011;11401;50.792;4.352;2023-01-19T00:57:54;9.13;;;7.15;;
22468;SDS011;11401;50.792;4.352;2023-01-19T01:00:21;7.85;;;6.85;;
22468;SDS011;11401;50.792;4.352;2023-01-19T01:02:50;6.65;;;5.95;;
22468;SDS011;11401;50.792;4.352;2023-01-19T01:05:18;7.90;;;7.18;;
22468;SDS011;11401;50.792;4.352;2023-01-19T01:07:45;9.13;;;6.93;;
22468;SDS011;11401;50.792;4.352;2023-01-19T01:10:19;9.95;;;6.70;;
22468;SDS011;11401;50.792;4.352;2023-01-19T01:12:47;7.85;;;6.70;;
22468;SDS011;11401;50.792;4.352;2023-01-19T01:15:24;8.13;;;6.60;;
22468;SDS011;11401;50.792;4.352;2023-01-19T01:17:53;7.43;;;6.05;;
22468;SDS011;11401;50.792;4.352;2023-01-19T01:20:21;8.40;;;6.95;;
22468;SDS011;11401;50.792;4.352;2023-01-19T01:22:52;7.40;;;6.57;;
22468;SDS011;11401;50.792;4.352;2023-01-19T01:25:21;7.47;;;6.63;;
22468;SDS011;11401;50.792;4.352;2023-01-19T01:27:50;6.18;;;5.57;;
22468;SDS011;11401;50.792;4.352;2023-01-19T01:30:18;10.57;;;6.90;;
22468;SDS011;11401;50.792;4.352;2023-01-19T01:32:45;7.90;;;6.25;;
22468;SDS011;11401;50.792;4.352;2023-01-19T01:35:12;7.75;;;6.28;;
22468;SDS011;11401;50.792;4.352;2023-01-19T01:37:40;7.82;;;6.60;;
22468;SDS011;11401;50.792;4.352;2023-01-19T01:40:09;9.68;;;6.65;;
22468;SDS011;11401;50.792;4.352;2023-01-19T01:42:38;7.90;;;6.18;;
22468;SDS011;11401;50.792;4.352;2023-01-19T01:45:08;7.45;;;6.68;;
22468;SDS011;11401;50.792;4.352;2023-01-19T01:47:41;10.30;;;6.20;;
22468;SDS011;11401;50.792;4.352;2023-01-19T01:52:56;8.10;;;6.03;;
22468;SDS011;11401;50.792;4.352;2023-01-19T01:55:38;8.23;;;6.22;;
22468;SDS011;11401;50.792;4.352;2023-01-19T01:58:12;7.38;;;6.68;;
22468;SDS011;11401;50.792;4.352;2023-01-19T02:00:41;8.35;;;6.75;;
22468;SDS011;11401;50.792;4.352;2023-01-19T02:03:27;6.55;;;5.85;;
22468;SDS011;11401;50.792;4.352;2023-01-19T02:05:56;7.25;;;6.38;;
22468;SDS011;11401;50.792;4.352;2023-01-19T02:11:12;8.07;;;5.60;;
22468;SDS011;11401;50.792;4.352;2023-01-19T02:13:58;6.72;;;5.90;;
22468;SDS011;11401;50.792;4.352;2023-01-19T02:16:25;8.95;;;6.20;;
22468;SDS011;11401;50.792;4.352;2023-01-19T02:18:52;10.05;;;6.03;;
22468;SDS011;11401;50.792;4.352;2023-01-19T02:24:17;7.60;;;6.50;;
22468;SDS011;11401;50.792;4.352;2023-01-19T02:26:46;7.82;;;6.32;;
22468;SDS011;11401;50.792;4.352;2023-01-19T02:29:17;8.43;;;6.88;;
22468;SDS011;11401;50.792;4.352;2023-01-19T02:31:46;7.28;;;6.28;;
22468;SDS011;11401;50.792;4.352;2023-01-19T02:34:14;9.05;;;6.47;;
22468;SDS011;11401;50.792;4.352;2023-01-19T02:36:46;7.18;;;6.28;;
22468;SDS011;11401;50.792;4.352;2023-01-19T02:39:36;7.05;;;6.32;;
22468;SDS011;11401;50.792;4.352;2023-01-19T02:42:09;8.90;;;6.00;;
22468;SDS011;11401;50.792;4.352;2023-01-19T02:44:41;8.02;;;6.68;;
22468;SDS011;11401;50.792;4.352;2023-01-19T02:47:10;8.60;;;6.60;;
22468;SDS011;11401;50.792;4.352;2023-01-19T02:49:38;10.60;;;6.72;;
22468;SDS011;11401;50.792;4.352;2023-01-19T02:52:06;8.93;;;7.00;;
22468;SDS011;11401;50.792;4.352;2023-01-19T02:54:45;11.30;;;7.38;;
22468;SDS011;11401;50.792;4.352;2023-01-19T03:11:25;8.18;;;6.45;;
22468;SDS011;11401;50.792;4.352;2023-01-19T03:14:01;11.65;;;6.30;;
22468;SDS011;11401;50.792;4.352;2023-01-19T03:16:41;7.22;;;6.47;;
22468;SDS011;11401;50.792;4.352;2023-01-19T03:19:18;8.45;;;6.65;;
22468;SDS011;11401;50.792;4.352;2023-01-19T03:24:55;8.90;;;6.38;;
22468;SDS011;11401;50.792;4.352;2023-01-19T03:27:32;7.07;;;6.07;;
22468;SDS011;11401;50.792;4.352;2023-01-19T03:30:10;8.88;;;6.28;;
22468;SDS011;11401;50.792;4.352;2023-01-19T03:32:42;10.63;;;6.50;;
22468;SDS011;11401;50.792;4.352;2023-01-19T03:35:14;7.85;;;6.05;;
22468;SDS011;11401;50.792;4.352;2023-01-19T03:37:45;7.40;;;6.05;;
22468;SDS011;11401;50.792;4.352;2023-01-19T03:40:16;9.23;;;6.45;;
22468;SDS011;11401;50.792;4.352;2023-01-19T03:42:43;8.93;;;6.28;;
22468;SDS011;11401;50.792;4.352;2023-01-19T03:45:11;10.38;;;6.65;;
22468;SDS011;11401;50.792;4.352;2023-01-19T03:47:39;8.48;;;6.55;;
22468;SDS011;11401;50.792;4.352;2023-01-19T03:50:08;8.65;;;7.07;;
22468;SDS011;11401;50.792;4.352;2023-01-19T03:52:40;16.83;;;6.90;;
22468;SDS011;11401;50.792;4.352;2023-01-19T03:55:07;10.93;;;6.43;;
22468;SDS011;11401;50.792;4.352;2023-01-19T03:57:35;11.25;;;6.70;;
22468;SDS011;11401;50.792;4.352;2023-01-19T04:00:03;11.60;;;7.32;;
22468;SDS011;11401;50.792;4.352;2023-01-19T04:02:37;10.07;;;6.72;;
22468;SDS011;11401;50.792;4.352;2023-01-19T04:05:04;11.77;;;7.25;;
22468;SDS011;11401;50.792;4.352;2023-01-19T04:07:31;9.77;;;6.78;;
22468;SDS011;11401;50.792;4.352;2023-01-19T04:09:58;10.57;;;6.68;;
22468;SDS011;11401;50.792;4.352;2023-01-19T04:12:25;10.55;;;6.93;;
22468;SDS011;11401;50.792;4.352;2023-01-19T04:14:52;11.20;;;6.93;;
22468;SDS011;11401;50.792;4.352;2023-01-19T04:17:19;8.73;;;6.65;;
22468;SDS011;11401;50.792;4.352;2023-01-19T04:19:46;10.30;;;7.05;;
22468;SDS011;11401;50.792;4.352;2023-01-19T04:22:13;11.57;;;7.35;;
22468;SDS011;11401;50.792;4.352;2023-01-19T04:24:40;11.48;;;7.93;;
22468;SDS011;11401;50.792;4.352;2023-01-19T04:27:07;11.35;;;7.80;;
22468;SDS011;11401;50.792;4.352;2023-01-19T04:29:34;9.35;;;7.32;;
22468;SDS011;11401;50.792;4.352;2023-01-19T04:32:01;11.38;;;7.72;;
22468;SDS011;11401;50.792;4.352;2023-01-19T04:34:28;13.27;;;8.38;;
22468;SDS011;11401;50.792;4.352;2023-01-19T04:36:55;10.65;;;7.75;;
22468;SDS011;11401;50.792;4.352;2023-01-19T04:39:22;12.77;;;7.57;;
22468;SDS011;11401;50.792;4.352;2023-01-19T04:41:49;11.35;;;9.43;;
22468;SDS011;11401;50.792;4.352;2023-01-19T04:44:17;10.32;;;7.47;;
22468;SDS011;11401;50.792;4.352;2023-01-19T04:46:44;13.63;;;8.55;;
22468;SDS011;11401;50.792;4.352;2023-01-19T04:49:11;22.20;;;14.15;;
22468;SDS011;11401;50.792;4.352;2023-01-19T04:51:38;14.48;;;8.88;;
22468;SDS011;11401;50.792;4.352;2023-01-19T04:54:05;14.25;;;8.90;;
22468;SDS011;11401;50.792;4.352;2023-01-19T04:56:34;9.82;;;7.35;;
22468;SDS011;11401;50.792;4.352;2023-01-19T04:59:02;8.88;;;7.68;;
22468;SDS011;11401;50.792;4.352;2023-01-19T05:01:29;16.50;;;9.68;;
22468;SDS011;11401;50.792;4.352;2023-01-19T05:03:59;12.68;;;8.65;;
22468;SDS011;11401;50.792;4.352;2023-01-19T05:06:29;13.45;;;8.85;;
22468;SDS011;11401;50.792;4.352;2023-01-19T05:08:55;16.60;;;9.70;;
22468;SDS011;11401;50.792;4.352;2023-01-19T05:11:22;15.63;;;9.98;;
22468;SDS011;11401;50.792;4.352;2023-01-19T05:13:49;16.38;;;9.10;;
22468;SDS011;11401;50.792;4.352;2023-01-19T05:16:16;12.95;;;9.30;;
22468;SDS011;11401;50.792;4.352;2023-01-19T05:18:43;13.85;;;8.88;;
22468;SDS011;11401;50.792;4.352;2023-01-19T05:21:10;13.48;;;9.85;;
22468;SDS011;11401;50.792;4.352;2023-01-19T05:23:37;12.05;;;9.38;;
22468;SDS011;11401;50.792;4.352;2023-01-19T05:26:04;15.75;;;10.73;;
22468;SDS011;11401;50.792;4.352;2023-01-19T05:28:31;11.85;;;9.02;;
22468;SDS011;11401;50.792;4.352;2023-01-19T05:30:59;13.23;;;9.63;;
22468;SDS011;11401;50.792;4.352;2023-01-19T05:33:26;15.68;;;9.40;;
22468;SDS011;11401;50.792;4.352;2023-01-19T05:35:53;13.90;;;8.20;;
22468;SDS011;11401;50.792;4.352;2023-01-19T05:38:21;15.52;;;10.60;;
22468;SDS011;11401;50.792;4.352;2023-01-19T05:41:00;14.80;;;9.60;;
22468;SDS011;11401;50.792;4.352;2023-01-19T05:43:27;15.95;;;10.13;;
22468;SDS011;11401;50.792;4.352;2023-01-19T05:45:54;14.50;;;9.77;;
22468;SDS011;11401;50.792;4.352;2023-01-19T05:48:21;15.32;;;9.77;;
22468;SDS011;11401;50.792;4.352;2023-01-19T05:50:48;14.75;;;9.90;;
22468;SDS011;11401;50.792;4.352;2023-01-19T05:53:15;12.63;;;8.48;;
22468;SDS011;11401;50.792;4.352;2023-01-19T05:55:43;10.77;;;8.38;;
22468;SDS011;11401;50.792;4.352;2023-01-19T05:58:10;13.90;;;9.35;;
22468;SDS011;11401;50.792;4.352;2023-01-19T06:00:37;14.88;;;9.02;;
22468;SDS011;11401;50.792;4.352;2023-01-19T06:03:04;14.52;;;9.65;;
22468;SDS011;11401;50.792;4.352;2023-01-19T06:05:31;13.52;;;9.30;;
22468;SDS011;11401;50.792;4.352;2023-01-19T06:07:59;17.27;;;9.30;;
22468;SDS011;11401;50.792;4.352;2023-01-19T06:10:27;14.85;;;8.82;;
22468;SDS011;11401;50.792;4.352;2023-01-19T06:12:54;11.80;;;9.43;;
22468;SDS011;11401;50.792;4.352;2023-01-19T06:15:21;14.02;;;9.43;;
22468;SDS011;11401;50.792;4.352;2023-01-19T06:17:48;16.85;;;10.32;;
22468;SDS011;11401;50.792;4.352;2023-01-19T06:20:15;17.13;;;9.85;;
22468;SDS011;11401;50.792;4.352;2023-01-19T06:22:42;15.38;;;9.93;;
22468;SDS011;11401;50.792;4.352;2023-01-19T06:25:09;14.60;;;8.95;;
22468;SDS011;11401;50.792;4.352;2023-01-19T06:27:37;12.48;;;9.45;;
22468;SDS011;11401;50.792;4.352;2023-01-19T06:30:05;11.65;;;9.18;;
22468;SDS011;11401;50.792;4.352;2023-01-19T06:32:32;12.73;;;8.63;;
22468;SDS011;11401;50.792;4.352;2023-01-19T06:34:59;13.00;;;9.05;;
22468;SDS011;11401;50.792;4.352;2023-01-19T06:37:26;11.30;;;8.40;;
22468;SDS011;11401;50.792;4.352;2023-01-19T06:39:55;13.00;;;8.95;;
22468;SDS011;11401;50.792;4.352;2023-01-19T06:42:22;10.35;;;8.32;;
22468;SDS011;11401;50.792;4.352;2023-01-19T06:44:49;14.45;;;8.80;;
22468;SDS011;11401;50.792;4.352;2023-01-19T06:47:16;14.25;;;9.13;;
22468;SDS011;11401;50.792;4.352;2023-01-19T06:49:43;14.23;;;8.32;;
22468;SDS011;11401;50.792;4.352;2023-01-19T06:52:11;16.25;;;9.43;;
22468;SDS011;11401;50.792;4.352;2023-01-19T06:54:41;12.57;;;8.55;;
22468;SDS011;11401;50.792;4.352;2023-01-19T06:57:11;14.85;;;8.60;;
22468;SDS011;11401;50.792;4.352;2023-01-19T06:59:38;15.30;;;9.43;;
22468;SDS011;11401;50.792;4.352;2023-01-19T07:02:05;14.70;;;8.85;;
22468;SDS011;11401;50.792;4.352;2023-01-19T07:04:52;14.70;;;9.43;;
22468;SDS011;11401;50.792;4.352;2023-01-19T07:07:19;13.63;;;9.15;;
22468;SDS011;11401;50.792;4.352;2023-01-19T07:09:46;15.35;;;10.52;;
22468;SDS011;11401;50.792;4.352;2023-01-19T07:12:13;12.65;;;9.10;;
22468;SDS011;11401;50.792;4.352;2023-01-19T07:14:41;13.98;;;9.13;;
22468;SDS011;11401;50.792;4.352;2023-01-19T07:17:08;17.90;;;9.75;;
22468;SDS011;11401;50.792;4.352;2023-01-19T07:19:36;19.10;;;10.40;;
22468;SDS011;11401;50.792;4.352;2023-01-19T07:22:03;16.20;;;10.38;;
22468;SDS011;11401;50.792;4.352;2023-01-19T07:24:30;12.18;;;9.63;;
22468;SDS011;11401;50.792;4.352;2023-01-19T07:26:58;16.45;;;9.30;;
22468;SDS011;11401;50.792;4.352;2023-01-19T07:29:26;14.32;;;8.98;;
22468;SDS011;11401;50.792;4.352;2023-01-19T07:31:53;18.55;;;8.73;;
22468;SDS011;11401;50.792;4.352;2023-01-19T07:34:20;16.40;;;8.88;;
22468;SDS011;11401;50.792;4.352;2023-01-19T07:36:47;11.73;;;9.02;;
22468;SDS011;11401;50.792;4.352;2023-01-19T07:39:14;16.38;;;10.32;;
22468;SDS011;11401;50.792;4.352;2023-01-19T07:41:42;15.55;;;9.70;;
22468;SDS011;11401;50.792;4.352;2023-01-19T07:44:08;15.25;;;9.57;;
22468;SDS011;11401;50.792;4.352;2023-01-19T07:46:35;13.82;;;9.52;;
22468;SDS011;11401;50.792;4.352;2023-01-19T07:49:02;17.83;;;10.32;;
22468;SDS011;11401;50.792;4.352;2023-01-19T07:51:30;15.18;;;9.20;;
22468;SDS011;11401;50.792;4.352;2023-01-19T07:53:57;14.13;;;9.25;;
22468;SDS011;11401;50.792;4.352;2023-01-19T07:56:24;15.05;;;8.73;;
22468;SDS011;11401;50.792;4.352;2023-01-19T07:58:53;17.45;;;9.65;;
22468;SDS011;11401;50.792;4.352;2023-01-19T08:01:20;19.33;;;9.85;;
22468;SDS011;11401;50.792;4.352;2023-01-19T08:03:47;17.23;;;9.85;;
22468;SDS011;11401;50.792;4.352;2023-01-19T08:06:19;15.00;;;9.88;;
22468;SDS011;11401;50.792;4.352;2023-01-19T08:08:51;13.73;;;9.70;;
22468;SDS011;11401;50.792;4.352;2023-01-19T08:11:18;17.10;;;8.85;;
22468;SDS011;11401;50.792;4.352;2023-01-19T08:13:45;13.88;;;9.50;;
22468;SDS011;11401;50.792;4.352;2023-01-19T08:16:12;15.02;;;9.57;;
22468;SDS011;11401;50.792;4.352;2023-01-19T08:18:39;11.60;;;8.52;;
22468;SDS011;11401;50.792;4.352;2023-01-19T08:21:06;14.40;;;9.07;;
22468;SDS011;11401;50.792;4.352;2023-01-19T08:23:34;16.77;;;9.50;;
22468;SDS011;11401;50.792;4.352;2023-01-19T08:26:01;15.23;;;9.80;;
22468;SDS011;11401;50.792;4.352;2023-01-19T08:28:42;11.07;;;8.30;;
22468;SDS011;11401;50.792;4.352;2023-01-19T08:31:09;16.27;;;9.25;;
22468;SDS011;11401;50.792;4.352;2023-01-19T08:33:46;17.95;;;9.13;;
22468;SDS011;11401;50.792;4.352;2023-01-19T08:36:13;18.38;;;9.35;;
22468;SDS011;11401;50.792;4.352;2023-01-19T08:38:40;14.68;;;9.68;;
22468;SDS011;11401;50.792;4.352;2023-01-19T08:41:10;16.65;;;9.40;;
22468;SDS011;11401;50.792;4.352;2023-01-19T08:43:37;15.55;;;9.07;;
22468;SDS011;11401;50.792;4.352;2023-01-19T08:46:04;16.27;;;9.43;;
22468;SDS011;11401;50.792;4.352;2023-01-19T08:48:32;15.30;;;9.60;;
22468;SDS011;11401;50.792;4.352;2023-01-19T08:50:59;12.02;;;8.45;;
22468;SDS011;11401;50.792;4.352;2023-01-19T08:53:26;13.95;;;9.48;;
22468;SDS011;11401;50.792;4.352;2023-01-19T08:55:54;17.45;;;9.77;;
22468;SDS011;11401;50.792;4.352;2023-01-19T08:58:22;13.05;;;9.55;;
22468;SDS011;11401;50.792;4.352;2023-01-19T09:00:49;15.43;;;9.73;;
22468;SDS011;11401;50.792;4.352;2023-01-19T09:03:18;15.05;;;9.18;;
22468;SDS011;11401;50.792;4.352;2023-01-19T09:05:47;12.80;;;8.40;;
22468;SDS011;11401;50.792;4.352;2023-01-19T09:08:14;13.55;;;8.80;;
22468;SDS011;11401;50.792;4.352;2023-01-19T09:10:48;12.88;;;8.70;;
22468;SDS011;11401;50.792;4.352;2023-01-19T09:13:18;19.27;;;9.57;;
22468;SDS011;11401;50.792;4.352;2023-01-19T09:15:45;15.88;;;10.00;;
22468;SDS011;11401;50.792;4.352;2023-01-19T09:18:13;19.85;;;9.65;;
22468;SDS011;11401;50.792;4.352;2023-01-19T09:20:43;16.60;;;9.38;;
22468;SDS011;11401;50.792;4.352;2023-01-19T09:23:12;16.73;;;9.27;;
22468;SDS011;11401;50.792;4.352;2023-01-19T09:25:41;19.45;;;9.57;;
22468;SDS011;11401;50.792;4.352;2023-01-19T09:28:11;14.10;;;9.35;;
22468;SDS011;11401;50.792;4.352;2023-01-19T09:30:40;22.80;;;10.45;;
22468;SDS011;11401;50.792;4.352;2023-01-19T09:33:09;17.35;;;10.00;;
22468;SDS011;11401;50.792;4.352;2023-01-19T09:35:38;15.07;;;9.20;;
22468;SDS011;11401;50.792;4.352;2023-01-19T09:38:06;16.35;;;9.50;;
22468;SDS011;11401;50.792;4.352;2023-01-19T09:40:41;11.00;;;8.45;;
22468;SDS011;11401;50.792;4.352;2023-01-19T09:43:16;19.23;;;10.40;;
22468;SDS011;11401;50.792;4.352;2023-01-19T09:45:50;17.10;;;9.25;;
22468;SDS011;11401;50.792;4.352;2023-01-19T09:51:09;14.98;;;9.20;;
22468;SDS011;11401;50.792;4.352;2023-01-19T09:53:50;14.02;;;8.85;;
22468;SDS011;11401;50.792;4.352;2023-01-19T09:56:18;14.82;;;9.52;;
22468;SDS011;11401;50.792;4.352;2023-01-19T09:58:47;13.27;;;8.07;;
22468;SDS011;11401;50.792;4.352;2023-01-19T10:04:12;17.70;;;8.70;;
22468;SDS011;11401;50.792;4.352;2023-01-19T10:12:34;12.57;;;8.40;;
22468;SDS011;11401;50.792;4.352;2023-01-19T10:20:33;13.50;;;7.78;;
22468;SDS011;11401;50.792;4.352;2023-01-19T10:23:18;11.23;;;7.55;;
22468;SDS011;11401;50.792;4.352;2023-01-19T10:25:58;15.80;;;7.95;;
22468;SDS011;11401;50.792;4.352;2023-01-19T10:28:28;15.77;;;8.35;;
22468;SDS011;11401;50.792;4.352;2023-01-19T10:30:55;15.00;;;9.15;;
22468;SDS011;11401;50.792;4.352;2023-01-19T10:33:22;12.68;;;7.93;;
22468;SDS011;11401;50.792;4.352;2023-01-19T10:35:50;12.15;;;7.90;;
22468;SDS011;11401;50.792;4.352;2023-01-19T10:38:17;12.68;;;8.23;;
22468;SDS011;11401;50.792;4.352;2023-01-19T10:40:50;12.32;;;7.72;;
22468;SDS011;11401;50.792;4.352;2023-01-19T10:43:33;14.07;;;8.82;;
22468;SDS011;11401;50.792;4.352;2023-01-19T10:46:01;9.48;;;6.47;;
22468;SDS011;11401;50.792;4.352;2023-01-19T10:48:38;12.85;;;7.82;;
22468;SDS011;11401;50.792;4.352;2023-01-19T10:51:07;11.32;;;7.80;;
22468;SDS011;11401;50.792;4.352;2023-01-19T10:53:36;12.23;;;7.93;;
22468;SDS011;11401;50.792;4.352;2023-01-19T10:56:16;16.48;;;8.98;;
22468;SDS011;11401;50.792;4.352;2023-01-19T10:58:48;14.05;;;8.68;;
22468;SDS011;11401;50.792;4.352;2023-01-19T11:03:46;15.55;;;9.73;;
22468;SDS011;11401;50.792;4.352;2023-01-19T11:08:47;12.45;;;8.77;;
22468;SDS011;11401;50.792;4.352;2023-01-19T11:11:17;13.32;;;8.32;;
22468;SDS011;11401;50.792;4.352;2023-01-19T11:14:00;12.95;;;8.23;;
22468;SDS011;11401;50.792;4.352;2023-01-19T11:16:30;18.20;;;8.95;;
22468;SDS011;11401;50.792;4.352;2023-01-19T11:19:00;11.65;;;7.60;;
22468;SDS011;11401;50.792;4.352;2023-01-19T11:21:28;16.83;;;8.35;;
22468;SDS011;11401;50.792;4.352;2023-01-19T11:24:01;13.30;;;8.02;;
22468;SDS011;11401;50.792;4.352;2023-01-19T11:29:18;16.77;;;8.48;;
22468;SDS011;11401;50.792;4.352;2023-01-19T11:31:48;11.65;;;7.05;;
22468;SDS011;11401;50.792;4.352;2023-01-19T11:34:24;11.82;;;7.78;;
22468;SDS011;11401;50.792;4.352;2023-01-19T11:37:22;15.10;;;7.88;;
22468;SDS011;11401;50.792;4.352;2023-01-19T11:39:54;13.57;;;8.10;;
22468;SDS011;11401;50.792;4.352;2023-01-19T11:42:23;12.43;;;7.75;;
22468;SDS011;11401;50.792;4.352;2023-01-19T11:47:26;13.70;;;8.45;;
22468;SDS011;11401;50.792;4.352;2023-01-19T11:53:10;23.63;;;8.55;;
22468;SDS011;11401;50.792;4.352;2023-01-19T11:55:47;11.57;;;6.82;;
22468;SDS011;11401;50.792;4.352;2023-01-19T11:58:16;14.75;;;8.77;;
22468;SDS011;11401;50.792;4.352;2023-01-19T12:06:00;14.80;;;8.48;;
22468;SDS011;11401;50.792;4.352;2023-01-19T12:08:33;12.07;;;7.75;;
22468;SDS011;11401;50.792;4.352;2023-01-19T12:11:07;10.63;;;6.95;;
22468;SDS011;11401;50.792;4.352;2023-01-19T12:13:40;15.48;;;8.18;;
22468;SDS011;11401;50.792;4.352;2023-01-19T12:16:10;14.93;;;8.45;;
22468;SDS011;11401;50.792;4.352;2023-01-19T12:21:43;14.82;;;8.23;;
22468;SDS011;11401;50.792;4.352;2023-01-19T12:24:15;10.93;;;7.88;;
22468;SDS011;11401;50.792;4.352;2023-01-19T12:26:52;11.68;;;7.57;;
22468;SDS011;11401;50.792;4.352;2023-01-19T12:29:42;11.80;;;7.28;;
22468;SDS011;11401;50.792;4.352;2023-01-19T12:34:45;11.73;;;6.80;;
22468;SDS011;11401;50.792;4.352;2023-01-19T12:39:56;10.02;;;7.63;;
22468;SDS011;11401;50.792;4.352;2023-01-19T12:42:30;10.50;;;7.78;;
22468;SDS011;11401;50.792;4.352;2023-01-19T12:45:06;12.38;;;7.15;;
22468;SDS011;11401;50.792;4.352;2023-01-19T12:47:38;11.27;;;7.45;;
22468;SDS011;11401;50.792;4.352;2023-01-19T12:50:18;8.88;;;6.75;;
22468;SDS011;11401;50.792;4.352;2023-01-19T12:52:50;11.75;;;7.22;;
22468;SDS011;11401;50.792;4.352;2023-01-19T12:55:29;12.77;;;7.00;;
22468;SDS011;11401;50.792;4.352;2023-01-19T12:58:12;12.98;;;8.20;;
22468;SDS011;11401;50.792;4.352;2023-01-19T13:00:48;10.82;;;6.72;;
22468;SDS011;11401;50.792;4.352;2023-01-19T13:08:15;10.65;;;7.18;;
22468;SDS011;11401;50.792;4.352;2023-01-19T13:13:33;11.85;;;7.95;;
22468;SDS011;11401;50.792;4.352;2023-01-19T13:24:14;13.57;;;7.65;;
22468;SDS011;11401;50.792;4.352;2023-01-19T13:32:11;12.43;;;7.30;;
22468;SDS011;11401;50.792;4.352;2023-01-19T13:35:00;11.75;;;6.40;;
22468;SDS011;11401;50.792;4.352;2023-01-19T13:37:29;8.60;;;6.93;;
22468;SDS011;11401;50.792;4.352;2023-01-19T13:40:02;9.07;;;7.18;;
22468;SDS011;11401;50.792;4.352;2023-01-19T13:42:35;12.40;;;7.10;;
22468;SDS011;11401;50.792;4.352;2023-01-19T13:45:14;10.23;;;7.30;;
22468;SDS011;11401;50.792;4.352;2023-01-19T13:48:00;12.95;;;7.25;;
22468;SDS011;11401;50.792;4.352;2023-01-19T13:50:31;10.65;;;7.20;;
22468;SDS011;11401;50.792;4.352;2023-01-19T13:53:01;7.60;;;5.88;;
22468;SDS011;11401;50.792;4.352;2023-01-19T13:55:30;9.43;;;6.22;;
22468;SDS011;11401;50.792;4.352;2023-01-19T13:57:57;8.88;;;6.05;;
22468;SDS011;11401;50.792;4.352;2023-01-19T14:00:28;9.93;;;5.85;;
22468;SDS011;11401;50.792;4.352;2023-01-19T14:02:57;16.50;;;6.68;;
22468;SDS011;11401;50.792;4.352;2023-01-19T14:05:39;10.55;;;6.82;;
22468;SDS011;11401;50.792;4.352;2023-01-19T14:13:17;12.85;;;6.10;;
22468;SDS011;11401;50.792;4.352;2023-01-19T14:15:48;10.65;;;6.85;;
22468;SDS011;11401;50.792;4.352;2023-01-19T14:26:52;10.63;;;6.50;;
22468;SDS011;11401;50.792;4.352;2023-01-19T14:31:44;16.90;;;7.60;;
22468;SDS011;11401;50.792;4.352;2023-01-19T14:34:32;10.38;;;6.25;;
22468;SDS011;11401;50.792;4.352;2023-01-19T14:37:10;11.80;;;6.65;;
22468;SDS011;11401;50.792;4.352;2023-01-19T14:39:46;13.75;;;6.85;;
22468;SDS011;11401;50.792;4.352;2023-01-19T14:42:22;10.93;;;6.75;;
22468;SDS011;11401;50.792;4.352;2023-01-19T14:44:55;17.77;;;7.93;;
22468;SDS011;11401;50.792;4.352;2023-01-19T14:47:32;11.90;;;7.38;;
22468;SDS011;11401;50.792;4.352;2023-01-19T14:50:06;10.38;;;6.80;;
22468;SDS011;11401;50.792;4.352;2023-01-19T14:52:47;14.80;;;7.10;;
22468;SDS011;11401;50.792;4.352;2023-01-19T14:55:28;10.80;;;7.03;;
22468;SDS011;11401;50.792;4.352;2023-01-19T14:58:00;11.10;;;7.30;;
22468;SDS011;11401;50.792;4.352;2023-01-19T15:00:27;11.50;;;7.88;;
22468;SDS011;11401;50.792;4.352;2023-01-19T15:02:54;9.68;;;7.20;;
22468;SDS011;11401;50.792;4.352;2023-01-19T15:05:21;11.15;;;7.85;;
22468;SDS011;11401;50.792;4.352;2023-01-19T15:07:49;13.57;;;8.63;;
22468;SDS011;11401;50.792;4.352;2023-01-19T15:10:20;13.57;;;8.63;;
22468;SDS011;11401;50.792;4.352;2023-01-19T15:12:49;13.70;;;8.25;;
22468;SDS011;11401;50.792;4.352;2023-01-19T15:15:28;13.23;;;7.70;;
22468;SDS011;11401;50.792;4.352;2023-01-19T15:17:58;11.93;;;7.90;;
22468;SDS011;11401;50.792;4.352;2023-01-19T15:20:26;20.35;;;7.35;;
22468;SDS011;11401;50.792;4.352;2023-01-19T15:22:54;20.80;;;8.50;;
22468;SDS011;11401;50.792;4.352;2023-01-19T15:25:21;26.85;;;10.70;;
22468;SDS011;11401;50.792;4.352;2023-01-19T15:27:51;21.17;;;9.63;;
22468;SDS011;11401;50.792;4.352;2023-01-19T15:30:23;15.77;;;9.82;;
22468;SDS011;11401;50.792;4.352;2023-01-19T15:33:17;15.68;;;8.82;;
22468;SDS011;11401;50.792;4.352;2023-01-19T15:35:46;17.40;;;9.65;;
22468;SDS011;11401;50.792;4.352;2023-01-19T15:38:14;15.38;;;8.25;;
22468;SDS011;11401;50.792;4.352;2023-01-19T15:40:41;12.40;;;7.88;;
22468;SDS011;11401;50.792;4.352;2023-01-19T15:43:09;13.48;;;8.32;;
22468;SDS011;11401;50.792;4.352;2023-01-19T15:45:37;13.13;;;8.10;;
22468;SDS011;11401;50.792;4.352;2023-01-19T15:48:09;19.38;;;8.45;;
22468;SDS011;11401;50.792;4.352;2023-01-19T15:50:41;15.43;;;8.32;;
22468;SDS011;11401;50.792;4.352;2023-01-19T15:53:12;12.27;;;7.35;;
22468;SDS011;11401;50.792;4.352;2023-01-19T15:55:41;14.43;;;7.90;;
22468;SDS011;11401;50.792;4.352;2023-01-19T15:58:09;17.25;;;8.35;;
22468;SDS011;11401;50.792;4.352;2023-01-19T16:00:39;15.20;;;8.40;;
22468;SDS011;11401;50.792;4.352;2023-01-19T16:03:07;20.02;;;8.52;;
22468;SDS011;11401;50.792;4.352;2023-01-19T16:05:35;12.68;;;8.32;;
22468;SDS011;11401;50.792;4.352;2023-01-19T16:08:09;13.52;;;7.70;;
22468;SDS011;11401;50.792;4.352;2023-01-19T16:10:41;12.50;;;7.10;;
22468;SDS011;11401;50.792;4.352;2023-01-19T16:13:09;10.07;;;7.63;;
22468;SDS011;11401;50.792;4.352;2023-01-19T16:15:37;12.75;;;8.48;;
22468;SDS011;11401;50.792;4.352;2023-01-19T16:18:05;10.43;;;7.40;;
22468;SDS011;11401;50.792;4.352;2023-01-19T16:20:32;14.40;;;7.38;;
22468;SDS011;11401;50.792;4.352;2023-01-19T16:22:59;11.55;;;7.35;;
22468;SDS011;11401;50.792;4.352;2023-01-19T16:25:42;10.40;;;7.20;;
22468;SDS011;11401;50.792;4.352;2023-01-19T16:28:09;11.68;;;7.65;;
22468;SDS011;11401;50.792;4.352;2023-01-19T16:30:36;11.35;;;8.25;;
22468;SDS011;11401;50.792;4.352;2023-01-19T16:33:03;11.45;;;7.32;;
22468;SDS011;11401;50.792;4.352;2023-01-19T16:35:30;12.40;;;7.75;;
22468;SDS011;11401;50.792;4.352;2023-01-19T16:37:57;13.10;;;8.45;;
22468;SDS011;11401;50.792;4.352;2023-01-19T16:40:24;11.85;;;8.25;;
22468;SDS011;11401;50.792;4.352;2023-01-19T16:42:51;14.93;;;8.45;;